createdAt,value
2023-04-02T00:00:10.682Z,86.60
2023-04-02T00:01:43.223Z,86.63
2023-04-02T00:02:22.343Z,86.85
2023-04-02T00:02:58.825Z,86.96
2023-04-02T00:03:59.690Z,86.65
2023-04-02T00:04:38.338Z,86.81
2023-04-02T00:05:18.596Z,86.90
2023-04-02T00:05:52.178Z,86.77
2023-04-02T00:06:33.219Z,86.59
2023-04-02T00:07:30.973Z,86.61
2023-04-02T00:08:18.357Z,87.02
2023-04-02T00:08:54.575Z,86.82
2023-04-02T00:09:36.926Z,86.90
2023-04-02T00:10:35.805Z,86.83
2023-04-02T00:11:10.456Z,87.01
2023-04-02T00:11:48.740Z,86.93
2023-04-02T00:12:22.323Z,86.99
2023-04-02T00:13:10.747Z,87.07
2023-04-02T00:13:49.378Z,87.08
2023-04-02T00:14:22.746Z,86.73
2023-04-02T00:14:58.255Z,86.57
2023-04-02T00:15:34.574Z,86.57
2023-04-02T00:16:15.797Z,86.63
2023-04-02T00:16:53.123Z,86.71
2023-04-02T00:17:26.937Z,86.50
2023-04-02T00:18:01.996Z,86.69
2023-04-02T00:18:42.819Z,86.59
2023-04-02T00:19:25.910Z,86.30
2023-04-02T00:20:09.338Z,86.41
2023-04-02T00:20:47.050Z,86.56
2023-04-02T00:21:26.852Z,86.62
2023-04-02T00:22:02.354Z,86.60
2023-04-02T00:22:35.835Z,86.83
2023-04-02T00:23:14.588Z,86.82
2023-04-02T00:23:48.733Z,86.59
2023-04-02T00:24:22.612Z,86.40
2023-04-02T00:24:57.227Z,86.38
2023-04-02T00:25:36.734Z,86.53
2023-04-02T00:26:37.780Z,86.42
2023-04-02T00:27:14.015Z,86.82
2023-04-02T00:27:47.987Z,86.79
2023-04-02T00:28:23.507Z,86.85
2023-04-02T00:28:57.809Z,86.84
2023-04-02T00:29:31.341Z,86.51
2023-04-02T00:30:05.464Z,86.40
2023-04-02T00:30:46.179Z,86.43
2023-04-02T00:31:21.087Z,86.49
2023-04-02T00:31:55.512Z,86.59
2023-04-02T00:32:33.336Z,86.62
2023-04-02T00:33:15.930Z,86.67
2023-04-02T00:33:50.505Z,86.60
2023-04-02T00:34:33.164Z,86.44
2023-04-02T00:35:22.967Z,86.22
2023-04-02T00:35:56.989Z,86.10
2023-04-02T00:36:36.159Z,86.29
2023-04-02T00:37:18.602Z,86.23
2023-04-02T00:37:52.122Z,86.11
2023-04-02T00:38:28.648Z,86.19
2023-04-02T00:39:05.141Z,86.28
2023-04-02T00:39:42.554Z,86.34
2023-04-02T00:40:20.077Z,86.35
2023-04-02T00:40:58.888Z,86.29
2023-04-02T00:41:36.299Z,86.23
2023-04-02T00:42:12.868Z,86.03
2023-04-02T00:42:48.443Z,86.16
2023-04-02T00:43:28.868Z,86.11
2023-04-02T00:44:02.947Z,86.06
2023-04-02T00:44:44.671Z,85.95
2023-04-02T00:45:29.078Z,85.96
2023-04-02T00:46:11.172Z,86.07
2023-04-02T00:46:49.961Z,86.18
2023-04-02T00:47:27.863Z,86.19
2023-04-02T00:48:21.155Z,86.20
2023-04-02T00:49:11.200Z,86.05
2023-04-02T00:49:44.973Z,85.85
2023-04-02T00:50:50.242Z,85.93
2023-04-02T00:51:29.630Z,86.17
2023-04-02T00:52:08.211Z,86.25
2023-04-02T00:52:45.430Z,86.26
2023-04-02T00:53:28.777Z,86.18
2023-04-02T00:54:06.831Z,86.16
2023-04-02T00:54:48.910Z,86.11
2023-04-02T00:55:27.807Z,86.02
2023-04-02T00:56:03.538Z,86.18
2023-04-02T00:56:44.533Z,86.18
2023-04-02T00:57:25.819Z,86.07
2023-04-02T00:58:04.673Z,86.22
2023-04-02T00:58:38.604Z,86.15
2023-04-02T00:59:32.331Z,86.04
2023-04-02T01:00:14.554Z,85.99
2023-04-02T01:00:52.299Z,86.12
2023-04-02T01:01:29.771Z,85.99
2023-04-02T01:02:17.553Z,85.89
2023-04-02T01:03:13.364Z,85.63
2023-04-02T01:04:05.985Z,86.14
2023-04-02T01:04:39.700Z,86.15
2023-04-02T01:05:16.969Z,86.15
2023-04-02T01:05:56.553Z,86.15
2023-04-02T01:06:35.872Z,86.16
2023-04-02T01:07:12.402Z,85.99
2023-04-02T01:08:13.318Z,85.98
2023-04-02T01:09:07.749Z,85.86
2023-04-02T01:10:07.737Z,85.92
2023-04-02T01:11:04.352Z,85.59
2023-04-02T01:12:20.251Z,85.77
2023-04-02T01:13:16.415Z,85.82
2023-04-02T01:14:13.269Z,86.18
2023-04-02T01:15:25.426Z,86.08
2023-04-02T01:16:26.065Z,86.35
2023-04-02T01:17:26.681Z,86.16
2023-04-02T01:18:19.846Z,86.24
2023-04-02T01:19:08.978Z,86.28
2023-04-02T01:20:01.738Z,86.43
2023-04-02T01:20:35.324Z,86.45
2023-04-02T01:21:23.320Z,86.27
2023-04-02T01:22:18.643Z,86.33
2023-04-02T01:23:25.954Z,86.47
2023-04-02T01:24:02.144Z,86.45
2023-04-02T01:24:39.269Z,86.18
2023-04-02T01:25:19.244Z,85.89
2023-04-02T01:26:19.952Z,86.01
2023-04-02T01:26:58.152Z,86.28
2023-04-02T01:27:48.167Z,86.43
2023-04-02T01:28:35.519Z,86.43
2023-04-02T01:29:16.814Z,86.15
2023-04-02T01:29:59.540Z,86.14
2023-04-02T01:30:36.854Z,86.11
2023-04-02T01:31:11.293Z,86.05
2023-04-02T01:31:47.378Z,86.27
2023-04-02T01:32:23.644Z,86.31
2023-04-02T01:32:57.137Z,86.39
2023-04-02T01:33:34.449Z,86.42
2023-04-02T01:34:12.315Z,86.25
2023-04-02T01:34:50.891Z,86.01
2023-04-02T01:35:28.232Z,86.14
2023-04-02T01:36:23.700Z,86.10
2023-04-02T01:37:23.305Z,86.18
2023-04-02T01:38:14.521Z,86.28
2023-04-02T01:39:02.432Z,86.20
2023-04-02T01:39:51.104Z,86.18
2023-04-02T01:40:45.922Z,86.31
2023-04-02T01:41:36.620Z,86.29
2023-04-02T01:42:17.654Z,86.30
2023-04-02T01:43:12.123Z,86.20
2023-04-02T01:43:58.609Z,86.30
2023-04-02T01:44:50.965Z,86.25
2023-04-02T01:45:25.390Z,86.25
2023-04-02T01:46:00.148Z,86.34
2023-04-02T01:46:35.894Z,86.32
2023-04-02T01:47:15.724Z,86.23
2023-04-02T01:47:50.389Z,86.26
2023-04-02T01:48:30.752Z,85.97
2023-04-02T01:50:46.020Z,86.10
2023-04-02T01:51:31.793Z,86.23
2023-04-02T01:52:06.669Z,85.94
2023-04-02T01:52:43.729Z,85.94
2023-04-02T01:53:21.451Z,86.07
2023-04-02T01:53:56.843Z,86.09
2023-04-02T01:54:30.517Z,86.07
2023-04-02T01:55:05.803Z,86.06
2023-04-02T01:55:54.377Z,86.15
2023-04-02T01:56:30.738Z,86.15
2023-04-02T01:57:06.278Z,86.07
2023-04-02T01:57:46.329Z,86.09
2023-04-02T01:58:25.786Z,86.02
2023-04-02T01:59:00.765Z,85.79
2023-04-02T01:59:36.024Z,85.90
2023-04-02T02:00:17.198Z,85.94
2023-04-02T02:00:58.168Z,85.90
2023-04-02T02:01:43.980Z,85.88
2023-04-02T02:02:18.001Z,86.11
2023-04-02T02:02:52.286Z,86.01
2023-04-02T02:03:26.390Z,86.11
2023-04-02T02:04:02.306Z,86.16
2023-04-02T02:04:36.203Z,86.12
2023-04-02T02:05:15.960Z,86.10
2023-04-02T02:05:51.501Z,85.83
2023-04-02T02:06:25.311Z,85.64
2023-04-02T02:07:01.006Z,85.61
2023-04-02T02:07:34.762Z,85.45
2023-04-02T02:08:23.141Z,85.39
2023-04-02T02:09:04.008Z,85.38
2023-04-02T02:09:37.928Z,85.70
2023-04-02T02:10:17.934Z,85.85
2023-04-02T02:10:51.777Z,86.06
2023-04-02T02:11:29.098Z,85.87
2023-04-02T02:12:04.554Z,85.89
2023-04-02T02:12:38.552Z,85.78
2023-04-02T02:13:16.204Z,85.90
2023-04-02T02:14:09.837Z,85.96
2023-04-02T02:14:48.161Z,85.82
2023-04-02T02:15:23.853Z,85.93
2023-04-02T02:15:59.451Z,85.97
2023-04-02T02:16:42.091Z,85.99
2023-04-02T02:17:19.487Z,86.05
2023-04-02T02:17:59.641Z,85.95
2023-04-02T02:18:33.880Z,85.89
2023-04-02T02:19:11.356Z,85.96
2023-04-02T02:19:52.834Z,85.60
2023-04-02T02:20:28.425Z,85.72
2023-04-02T02:21:07.877Z,85.72
2023-04-02T02:22:14.694Z,85.89
2023-04-02T02:22:51.563Z,85.83
2023-04-02T02:23:25.785Z,85.86
2023-04-02T02:24:02.215Z,85.93
2023-04-02T02:24:37.405Z,85.75
2023-04-02T02:25:32.896Z,85.63
2023-04-02T02:26:07.607Z,85.18
2023-04-02T02:26:43.201Z,85.20
2023-04-02T02:27:25.646Z,85.12
2023-04-02T02:28:15.578Z,85.20
2023-04-02T02:28:54.634Z,85.14
2023-04-02T02:29:30.488Z,84.75
2023-04-02T02:30:07.792Z,84.98
2023-04-02T02:30:48.626Z,84.99
2023-04-02T02:31:29.795Z,84.77
2023-04-02T02:32:07.330Z,85.06
2023-04-02T02:32:53.053Z,85.16
2023-04-02T02:33:37.236Z,85.27
2023-04-02T02:34:21.318Z,85.37
2023-04-02T02:35:04.517Z,85.46
2023-04-02T02:35:54.978Z,85.49
2023-04-02T02:36:40.329Z,85.53
2023-04-02T02:37:23.343Z,85.43
2023-04-02T02:38:10.695Z,85.51
2023-04-02T02:38:49.997Z,85.31
2023-04-02T02:39:38.087Z,85.47
2023-04-02T02:40:29.154Z,85.12
2023-04-02T02:41:27.582Z,85.46
2023-04-02T02:42:03.106Z,85.43
2023-04-02T02:42:44.600Z,85.53
2023-04-02T02:43:18.760Z,85.60
2023-04-02T02:44:26.951Z,85.59
2023-04-02T02:45:06.610Z,85.56
2023-04-02T02:45:42.156Z,85.64
2023-04-02T02:46:21.000Z,85.68
2023-04-02T02:46:59.748Z,85.70
2023-04-02T02:47:42.477Z,85.58
2023-04-02T02:48:23.057Z,85.38
2023-04-02T02:48:59.791Z,84.72
2023-04-02T02:49:38.362Z,85.08
2023-04-02T02:50:22.709Z,84.93
2023-04-02T02:50:57.222Z,85.28
2023-04-02T02:51:44.613Z,85.33
2023-04-02T02:52:23.128Z,85.45
2023-04-02T02:53:17.882Z,85.27
2023-04-02T02:53:56.000Z,85.22
2023-04-02T02:54:32.383Z,85.40
2023-04-02T02:55:22.842Z,85.32
2023-04-02T02:56:11.185Z,85.37
2023-04-02T02:56:53.568Z,84.90
2023-04-02T02:57:33.840Z,84.00
2023-04-02T02:58:15.912Z,84.08
2023-04-02T02:59:02.073Z,84.44
2023-04-02T02:59:41.158Z,84.77
2023-04-02T03:00:19.681Z,84.95
2023-04-02T03:00:54.083Z,84.99
2023-04-02T03:01:31.385Z,85.14
2023-04-02T03:02:09.942Z,85.34
2023-04-02T03:02:45.034Z,85.33
2023-04-02T03:03:28.507Z,85.10
2023-04-02T03:04:04.877Z,84.67
2023-04-02T03:04:39.063Z,84.85
2023-04-02T03:05:22.406Z,85.15
2023-04-02T03:06:17.582Z,85.38
2023-04-02T03:06:54.076Z,85.44
2023-04-02T03:07:30.560Z,85.36
2023-04-02T03:08:11.164Z,85.34
2023-04-02T03:08:52.474Z,85.47
2023-04-02T03:09:42.580Z,85.59
2023-04-02T03:10:31.669Z,85.68
2023-04-02T03:11:19.978Z,85.76
2023-04-02T03:12:06.856Z,85.83
2023-04-02T03:12:53.671Z,85.71
2023-04-02T03:13:35.798Z,85.91
2023-04-02T03:14:27.457Z,85.99
2023-04-02T03:15:08.540Z,86.02
2023-04-02T03:15:48.003Z,86.03
2023-04-02T03:16:31.788Z,85.89
2023-04-02T03:17:17.384Z,86.02
2023-04-02T03:17:51.681Z,86.01
2023-04-02T03:18:45.677Z,85.50
2023-04-02T03:19:33.806Z,85.81
2023-04-02T03:20:27.536Z,85.90
2023-04-02T03:21:28.878Z,85.98
2023-04-02T03:22:14.981Z,85.91
2023-04-02T03:23:03.523Z,86.11
2023-04-02T03:23:42.518Z,86.17
2023-04-02T03:24:35.050Z,86.31
2023-04-02T03:25:30.500Z,86.52
2023-04-02T03:26:25.243Z,86.45
2023-04-02T03:27:39.686Z,86.44
2023-04-02T03:28:20.102Z,86.52
2023-04-02T03:29:05.334Z,86.49
2023-04-02T03:29:49.762Z,86.82
2023-04-02T03:30:50.527Z,86.53
2023-04-02T03:31:40.190Z,86.45
2023-04-02T03:32:29.122Z,86.73
2023-04-02T03:33:30.317Z,86.94
2023-04-02T03:34:14.608Z,86.84
2023-04-02T03:35:20.302Z,86.93
2023-04-02T03:35:57.303Z,87.00
2023-04-02T03:36:38.547Z,86.94
2023-04-02T03:37:21.481Z,86.99
2023-04-02T03:38:01.300Z,86.95
2023-04-02T03:38:41.386Z,86.56
2023-04-02T03:39:24.610Z,86.60
2023-04-02T03:40:16.070Z,86.69
2023-04-02T03:41:19.379Z,87.15
2023-04-02T03:42:08.358Z,87.32
2023-04-02T03:42:56.435Z,87.03
2023-04-02T03:43:56.169Z,87.03
2023-04-02T03:44:44.684Z,87.23
2023-04-02T03:45:23.178Z,87.17
2023-04-02T03:46:05.525Z,87.13
2023-04-02T03:46:45.253Z,87.16
2023-04-02T03:47:34.770Z,87.08
2023-04-02T03:48:18.658Z,87.11
2023-04-02T03:48:59.257Z,86.98
2023-04-02T03:49:41.644Z,86.87
2023-04-02T03:50:27.315Z,87.14
2023-04-02T03:51:05.634Z,87.36
2023-04-02T03:51:55.704Z,87.43
2023-04-02T03:52:30.649Z,87.58
2023-04-02T03:53:06.218Z,87.44
2023-04-02T03:53:40.087Z,87.22
2023-04-02T03:54:17.050Z,87.22
2023-04-02T03:54:54.100Z,87.32
2023-04-02T03:55:35.969Z,87.09
2023-04-02T03:56:19.550Z,86.81
2023-04-02T03:56:53.939Z,87.09
2023-04-02T03:57:37.122Z,86.92
2023-04-02T03:58:25.910Z,87.21
2023-04-02T03:59:24.997Z,87.37
2023-04-02T04:00:08.623Z,87.12
2023-04-02T04:00:53.771Z,87.27
2023-04-02T04:01:35.678Z,87.00
2023-04-02T04:02:27.698Z,87.26
2023-04-02T04:03:14.855Z,87.29
2023-04-02T04:03:53.577Z,87.35
2023-04-02T04:04:32.021Z,87.40
2023-04-02T04:05:14.709Z,87.37
2023-04-02T04:06:14.678Z,87.20
2023-04-02T04:06:52.581Z,87.49
2023-04-02T04:07:34.981Z,87.40
2023-04-02T04:08:25.451Z,87.35
2023-04-02T04:09:40.477Z,87.56
2023-04-02T04:10:26.017Z,87.81
2023-04-02T04:11:09.161Z,87.90
2023-04-02T04:11:50.010Z,87.89
2023-04-02T04:12:36.304Z,87.81
2023-04-02T04:13:18.371Z,87.80
2023-04-02T04:14:01.387Z,87.67
2023-04-02T04:14:44.101Z,87.64
2023-04-02T04:16:03.368Z,87.67
2023-04-02T04:16:53.911Z,87.56
2023-04-02T04:17:40.672Z,87.72
2023-04-02T04:18:35.187Z,87.81
2023-04-02T04:19:35.416Z,87.89
2023-04-02T04:20:22.810Z,87.91
2023-04-02T04:21:03.353Z,87.86
2023-04-02T04:21:45.440Z,87.71
2023-04-02T04:22:34.185Z,87.67
2023-04-02T04:23:20.207Z,87.77
2023-04-02T04:23:53.716Z,87.49
2023-04-02T04:24:28.120Z,87.51
2023-04-02T04:25:07.722Z,87.59
2023-04-02T04:25:42.280Z,87.81
2023-04-02T04:26:56.385Z,87.39
2023-04-02T04:27:47.127Z,87.83
2023-04-02T04:29:13.220Z,87.97
2023-04-02T04:30:20.650Z,88.07
2023-04-02T04:31:09.529Z,87.93
2023-04-02T04:32:11.261Z,88.13
2023-04-02T04:32:50.594Z,88.00
2023-04-02T04:33:50.861Z,87.94
2023-04-02T04:34:42.663Z,88.10
2023-04-02T04:35:25.235Z,88.12
2023-04-02T04:36:04.129Z,88.06
2023-04-02T04:36:54.668Z,87.80
2023-04-02T04:37:43.110Z,87.62
2023-04-02T04:38:27.939Z,87.77
2023-04-02T04:39:14.817Z,87.82
2023-04-02T04:39:58.608Z,87.70
2023-04-02T04:40:38.337Z,87.75
2023-04-02T04:41:16.943Z,87.75
2023-04-02T04:41:54.728Z,87.85
2023-04-02T04:42:32.550Z,87.93
2023-04-02T04:43:16.289Z,87.66
2023-04-02T04:44:01.354Z,87.57
2023-04-02T04:45:08.063Z,87.36
2023-04-02T04:45:47.987Z,87.60
2023-04-02T04:46:35.755Z,87.49
2023-04-02T04:47:19.401Z,87.74
2023-04-02T04:48:09.430Z,87.86
2023-04-02T04:48:53.109Z,87.73
2023-04-02T04:49:50.949Z,87.72
2023-04-02T04:50:31.414Z,87.69
2023-04-02T04:52:37.033Z,87.86
2023-04-02T04:53:24.254Z,87.98
2023-04-02T04:54:00.867Z,88.08
2023-04-02T04:54:38.697Z,87.96
2023-04-02T04:55:31.177Z,87.74
2023-04-02T04:56:18.524Z,87.52
2023-04-02T04:57:03.537Z,87.53
2023-04-02T04:57:41.786Z,87.59
2023-04-02T04:58:34.663Z,87.47
2023-04-02T04:59:28.959Z,87.51
2023-04-02T05:00:17.897Z,87.80
2023-04-02T05:01:22.244Z,87.76
2023-04-02T05:02:06.976Z,87.59
2023-04-02T05:03:09.577Z,87.23
2023-04-02T05:04:04.228Z,87.17
2023-04-02T05:04:40.592Z,87.17
2023-04-02T05:05:29.960Z,87.01
2023-04-02T05:06:39.221Z,87.02
2023-04-02T05:07:36.855Z,87.47
2023-04-02T05:08:22.812Z,87.57
2023-04-02T05:09:00.698Z,87.55
2023-04-02T05:10:50.559Z,87.46
2023-04-02T05:11:47.560Z,87.51
2023-04-02T05:12:42.650Z,87.50
2023-04-02T05:13:28.875Z,87.63
2023-04-02T05:14:14.110Z,87.12
2023-04-02T05:14:54.528Z,87.28
2023-04-02T05:15:46.031Z,87.46
2023-04-02T05:16:22.995Z,87.40
2023-04-02T05:17:16.358Z,87.33
2023-04-02T05:18:11.896Z,86.97
2023-04-02T05:19:19.575Z,87.07
2023-04-02T05:20:37.555Z,87.40
2023-04-02T05:21:16.949Z,87.28
2023-04-02T05:22:28.858Z,87.36
2023-04-02T05:23:15.731Z,87.20
2023-04-02T05:24:00.224Z,87.24
2023-04-02T05:24:48.882Z,87.18
2023-04-02T05:25:23.969Z,87.33
2023-04-02T05:26:24.816Z,87.19
2023-04-02T05:27:03.115Z,87.30
2023-04-02T05:29:23.069Z,87.36
2023-04-02T05:30:06.886Z,87.35
2023-04-02T05:31:03.483Z,87.47
2023-04-02T05:31:47.401Z,87.29
2023-04-02T05:32:37.005Z,87.39
2023-04-02T05:33:31.437Z,87.47
2023-04-02T05:34:07.513Z,87.35
2023-04-02T05:34:45.940Z,87.52
2023-04-02T05:35:23.987Z,87.44
2023-04-02T05:36:07.109Z,87.41
2023-04-02T05:36:47.050Z,87.29
2023-04-02T05:37:23.588Z,87.35
2023-04-02T05:37:58.270Z,87.40
2023-04-02T05:38:37.245Z,87.20
2023-04-02T05:39:11.830Z,87.20
2023-04-02T05:40:00.074Z,87.01
2023-04-02T05:40:41.793Z,87.03
2023-04-02T05:41:38.634Z,87.07
2023-04-02T05:42:20.847Z,87.21
2023-04-02T05:43:00.692Z,87.04
2023-04-02T05:43:39.165Z,87.16
2023-04-02T05:44:17.816Z,87.30
2023-04-02T05:45:04.154Z,87.25
2023-04-02T05:45:41.850Z,87.27
2023-04-02T05:46:25.948Z,87.41
2023-04-02T05:47:08.346Z,87.28
2023-04-02T05:47:44.844Z,87.07
2023-04-02T05:48:30.332Z,87.01
2023-04-02T05:49:09.588Z,87.07
2023-04-02T05:49:47.238Z,87.03
2023-04-02T05:50:37.799Z,86.95
2023-04-02T05:51:31.520Z,86.58
2023-04-02T05:52:12.382Z,86.81
2023-04-02T05:52:52.140Z,86.79
2023-04-02T05:53:33.299Z,86.42
2023-04-02T05:54:23.490Z,86.44
2023-04-02T05:55:20.847Z,86.59
2023-04-02T05:55:59.881Z,86.82
2023-04-02T05:56:44.333Z,86.98
2023-04-02T05:57:39.461Z,86.74
2023-04-02T05:59:12.667Z,86.90
2023-04-02T05:59:57.541Z,86.85
2023-04-02T06:00:40.254Z,86.87
2023-04-02T06:01:19.095Z,86.95
2023-04-02T06:01:56.330Z,86.99
2023-04-02T06:02:43.020Z,87.04
2023-04-02T06:03:40.124Z,86.90
2023-04-02T06:04:23.235Z,86.87
2023-04-02T06:05:20.638Z,86.79
2023-04-02T06:05:59.893Z,86.54
2023-04-02T06:07:08.486Z,86.37
2023-04-02T06:08:01.844Z,86.50
2023-04-02T06:08:46.082Z,86.74
2023-04-02T06:09:23.472Z,86.38
2023-04-02T06:10:09.699Z,86.63
2023-04-02T06:10:54.984Z,86.78
2023-04-02T06:11:37.780Z,86.71
2023-04-02T06:12:25.107Z,86.72
2023-04-02T06:13:04.494Z,86.85
2023-04-02T06:13:42.584Z,86.81
2023-04-02T06:14:17.812Z,86.75
2023-04-02T06:14:52.998Z,86.64
2023-04-02T06:15:27.486Z,86.66
2023-04-02T06:16:06.785Z,86.83
2023-04-02T06:16:41.887Z,86.86
2023-04-02T06:17:18.356Z,86.84
2023-04-02T06:18:31.697Z,86.76
2023-04-02T06:19:32.545Z,86.81
2023-04-02T06:20:07.133Z,86.76
2023-04-02T06:20:41.355Z,86.30
2023-04-02T06:21:18.599Z,86.37
2023-04-02T06:22:01.070Z,86.53
2023-04-02T06:22:40.283Z,86.41
2023-04-02T06:23:31.168Z,86.40
2023-04-02T06:24:11.930Z,86.49
2023-04-02T06:24:49.512Z,86.43
2023-04-02T06:25:34.518Z,86.13
2023-04-02T06:26:17.533Z,86.15
2023-04-02T06:26:58.134Z,86.33
2023-04-02T06:27:34.321Z,86.24
2023-04-02T06:28:16.427Z,86.30
2023-04-02T06:29:06.313Z,86.00
2023-04-02T06:29:45.418Z,85.86
2023-04-02T06:30:28.914Z,85.80
2023-04-02T06:31:12.521Z,85.82
2023-04-02T06:31:52.676Z,85.61
2023-04-02T06:32:27.995Z,85.60
2023-04-02T06:33:03.206Z,85.63
2023-04-02T06:33:37.807Z,85.69
2023-04-02T06:34:18.670Z,85.36
2023-04-02T06:35:16.345Z,85.44
2023-04-02T06:35:55.500Z,85.10
2023-04-02T06:36:34.488Z,85.19
2023-04-02T06:37:24.524Z,85.05
2023-04-02T06:38:07.532Z,84.77
2023-04-02T06:38:44.252Z,84.53
2023-04-02T06:39:24.062Z,84.76
2023-04-02T06:39:59.756Z,84.74
2023-04-02T06:40:53.400Z,84.74
2023-04-02T06:41:36.402Z,84.91
2023-04-02T06:42:38.024Z,85.12
2023-04-02T06:43:50.195Z,85.10
2023-04-02T06:44:59.817Z,85.32
2023-04-02T06:46:32.777Z,85.40
2023-04-02T06:47:28.525Z,85.32
2023-04-02T06:48:03.973Z,85.21
2023-04-02T06:48:51.945Z,85.10
2023-04-02T06:49:35.821Z,85.21
2023-04-02T06:50:18.583Z,85.33
2023-04-02T06:50:57.524Z,84.82
2023-04-02T06:51:34.244Z,84.91
2023-04-02T06:52:31.624Z,84.96
2023-04-02T06:53:12.128Z,85.07
2023-04-02T06:53:48.489Z,85.18
2023-04-02T06:54:23.316Z,85.12
2023-04-02T06:55:07.896Z,84.89
2023-04-02T06:56:01.471Z,84.72
2023-04-02T06:56:51.024Z,84.59
2023-04-02T06:57:43.627Z,84.66
2023-04-02T06:58:19.107Z,84.46
2023-04-02T06:58:52.717Z,84.30
2023-04-02T06:59:27.485Z,84.04
2023-04-02T07:00:02.231Z,83.74
2023-04-02T07:00:42.855Z,83.41
2023-04-02T07:01:24.331Z,83.39
2023-04-02T07:02:32.159Z,83.48
2023-04-02T07:03:15.045Z,83.76
2023-04-02T07:03:48.682Z,83.70
2023-04-02T07:04:30.322Z,83.61
2023-04-02T07:05:09.527Z,83.74
2023-04-02T07:05:49.571Z,83.91
2023-04-02T07:06:23.463Z,84.15
2023-04-02T07:06:59.013Z,84.40
2023-04-02T07:07:35.817Z,84.58
2023-04-02T07:08:11.404Z,84.49
2023-04-02T07:08:45.445Z,84.26
2023-04-02T07:09:19.458Z,84.37
2023-04-02T07:09:56.673Z,84.53
2023-04-02T07:10:30.654Z,84.41
2023-04-02T07:11:04.082Z,84.16
2023-04-02T07:11:37.910Z,84.29
2023-04-02T07:12:13.827Z,84.03
2023-04-02T07:12:48.566Z,83.90
2023-04-02T07:13:24.596Z,83.90
2023-04-02T07:13:58.356Z,83.98
2023-04-02T07:14:32.632Z,83.48
2023-04-02T07:15:06.916Z,83.41
2023-04-02T07:15:42.390Z,83.36
2023-04-02T07:16:27.733Z,83.58
2023-04-02T07:17:01.559Z,83.73
2023-04-02T07:17:35.046Z,83.90
2023-04-02T07:18:22.222Z,84.04
2023-04-02T07:18:56.333Z,84.16
2023-04-02T07:19:30.242Z,84.24
2023-04-02T07:20:06.433Z,84.16
2023-04-02T07:20:41.865Z,84.11
2023-04-02T07:21:18.629Z,84.18
2023-04-02T07:21:52.565Z,84.14
2023-04-02T07:22:27.351Z,83.91
2023-04-02T07:23:04.680Z,83.56
2023-04-02T07:23:38.381Z,83.41
2023-04-02T07:24:12.073Z,83.18
2023-04-02T07:24:46.530Z,83.42
2023-04-02T07:25:20.084Z,83.44
2023-04-02T07:25:55.461Z,83.24
2023-04-02T07:26:29.041Z,83.28
2023-04-02T07:27:02.872Z,83.44
2023-04-02T07:27:36.538Z,83.50
2023-04-02T07:28:09.998Z,83.34
2023-04-02T07:28:44.025Z,83.29
2023-04-02T07:29:17.701Z,83.15
2023-04-02T07:29:51.293Z,83.17
2023-04-02T07:30:24.882Z,83.27
2023-04-02T07:30:58.414Z,83.05
2023-04-02T07:31:32.032Z,82.94
2023-04-02T07:32:06.246Z,83.03
2023-04-02T07:32:39.981Z,83.02
2023-04-02T07:33:19.146Z,83.02
2023-04-02T07:33:54.898Z,83.12
2023-04-02T07:34:28.332Z,83.18
2023-04-02T07:35:01.772Z,82.99
2023-04-02T07:35:35.348Z,82.65
2023-04-02T07:36:17.718Z,82.78
2023-04-02T07:36:51.731Z,83.11
2023-04-02T07:37:25.164Z,83.18
2023-04-02T07:37:58.874Z,83.11
2023-04-02T07:38:32.268Z,82.66
2023-04-02T07:39:05.795Z,82.62
2023-04-02T07:39:40.685Z,82.64
2023-04-02T07:40:22.113Z,82.80
2023-04-02T07:40:55.474Z,82.76
2023-04-02T07:41:28.924Z,82.54
2023-04-02T07:42:02.555Z,82.55
2023-04-02T07:42:36.426Z,82.27
2023-04-02T07:43:09.972Z,82.63
2023-04-02T07:43:43.924Z,82.67
2023-04-02T07:44:17.522Z,82.95
2023-04-02T07:44:51.504Z,82.61
2023-04-02T07:45:25.053Z,82.77
2023-04-02T07:46:01.116Z,82.85
2023-04-02T07:46:34.631Z,82.87
2023-04-02T07:47:10.584Z,82.96
2023-04-02T07:47:44.320Z,82.60
2023-04-02T07:48:17.671Z,82.99
2023-04-02T07:48:51.032Z,83.10
2023-04-02T07:49:24.594Z,83.22
2023-04-02T07:49:58.344Z,82.89
2023-04-02T07:50:31.702Z,82.89
2023-04-02T07:51:06.241Z,82.94
2023-04-02T07:51:39.608Z,82.80
2023-04-02T07:52:13.163Z,82.95
2023-04-02T07:52:46.805Z,83.06
2023-04-02T07:53:38.948Z,82.97
2023-04-02T07:54:13.205Z,83.13
2023-04-02T07:54:46.691Z,83.43
2023-04-02T07:55:20.122Z,83.62
2023-04-02T07:55:54.263Z,83.54
2023-04-02T07:56:28.889Z,83.34
2023-04-02T07:57:02.316Z,83.34
2023-04-02T07:57:48.693Z,83.29
2023-04-02T07:58:22.530Z,83.42
2023-04-02T07:58:56.523Z,83.07
2023-04-02T07:59:29.954Z,83.23
2023-04-02T08:00:04.988Z,82.75
2023-04-02T08:00:45.797Z,82.86
2023-04-02T08:01:26.003Z,82.55
2023-04-02T08:01:59.914Z,82.26
2023-04-02T08:02:33.613Z,82.27
2023-04-02T08:03:07.366Z,82.33
2023-04-02T08:03:42.761Z,82.27
2023-04-02T08:04:19.113Z,82.40
2023-04-02T08:04:52.761Z,82.60
2023-04-02T08:05:26.696Z,82.29
2023-04-02T08:06:00.550Z,82.30
2023-04-02T08:06:33.927Z,82.46
2023-04-02T08:07:07.641Z,82.65
2023-04-02T08:07:44.540Z,82.71
2023-04-02T08:08:18.087Z,82.70
2023-04-02T08:08:51.492Z,82.69
2023-04-02T08:09:24.953Z,82.72
2023-04-02T08:09:58.762Z,82.97
2023-04-02T08:10:32.339Z,83.11
2023-04-02T08:11:06.289Z,83.13
2023-04-02T08:11:40.431Z,82.94
2023-04-02T08:12:14.718Z,82.80
2023-04-02T08:12:48.218Z,82.94
2023-04-02T08:13:21.784Z,82.57
2023-04-02T08:13:55.624Z,82.16
2023-04-02T08:14:28.991Z,82.39
2023-04-02T08:15:03.393Z,82.62
2023-04-02T08:15:37.415Z,82.74
2023-04-02T08:16:11.364Z,82.58
2023-04-02T08:16:44.823Z,82.52
2023-04-02T08:17:18.450Z,82.65
2023-04-02T08:17:51.949Z,82.38
2023-04-02T08:18:25.775Z,82.47
2023-04-02T08:18:59.271Z,82.74
2023-04-02T08:19:36.938Z,82.33
2023-04-02T08:20:20.366Z,82.23
2023-04-02T08:20:53.669Z,82.24
2023-04-02T08:21:30.328Z,82.14
2023-04-02T08:22:03.716Z,82.19
2023-04-02T08:22:37.321Z,82.09
2023-04-02T08:23:18.288Z,82.17
2023-04-02T08:23:51.919Z,82.45
2023-04-02T08:24:25.737Z,82.26
2023-04-02T08:24:59.268Z,82.15
2023-04-02T08:25:33.245Z,82.19
2023-04-02T08:26:07.572Z,81.96
2023-04-02T08:26:41.970Z,81.96
2023-04-02T08:27:16.327Z,81.97
2023-04-02T08:27:50.136Z,82.24
2023-04-02T08:28:24.261Z,82.35
2023-04-02T08:28:59.274Z,82.55
2023-04-02T08:29:32.705Z,82.82
2023-04-02T08:30:08.490Z,82.95
2023-04-02T08:30:42.117Z,83.12
2023-04-02T08:31:17.416Z,83.03
2023-04-02T08:31:51.292Z,82.47
2023-04-02T08:32:26.657Z,81.75
2023-04-02T08:33:00.066Z,82.32
2023-04-02T08:33:33.662Z,82.56
2023-04-02T08:34:07.040Z,82.78
2023-04-02T08:34:40.683Z,82.55
2023-04-02T08:35:17.066Z,82.22
2023-04-02T08:35:51.339Z,82.58
2023-04-02T08:36:34.730Z,82.64
2023-04-02T08:37:11.608Z,82.67
2023-04-02T08:37:45.425Z,82.86
2023-04-02T08:38:21.770Z,82.89
2023-04-02T08:38:55.241Z,82.73
2023-04-02T08:39:33.185Z,82.91
2023-04-02T08:40:07.714Z,82.52
2023-04-02T08:40:44.361Z,81.62
2023-04-02T08:41:28.001Z,82.01
2023-04-02T08:42:20.847Z,81.75
2023-04-02T08:43:06.111Z,82.24
2023-04-02T08:43:40.965Z,82.63
2023-04-02T08:44:32.572Z,82.95
2023-04-02T08:45:35.770Z,83.05
2023-04-02T08:46:17.064Z,82.55
2023-04-02T08:47:06.643Z,82.40
2023-04-02T08:47:44.463Z,82.73
2023-04-02T08:48:18.559Z,82.76
2023-04-02T08:48:58.271Z,82.36
2023-04-02T08:49:44.646Z,82.28
2023-04-02T08:50:29.391Z,82.35
2023-04-02T08:51:05.302Z,82.52
2023-04-02T08:51:38.875Z,82.15
2023-04-02T08:52:29.083Z,82.03
2023-04-02T08:53:07.209Z,81.77
2023-04-02T08:53:42.153Z,82.29
2023-04-02T08:54:22.514Z,82.82
2023-04-02T08:54:58.243Z,82.90
2023-04-02T08:56:08.281Z,82.76
2023-04-02T08:56:52.195Z,82.60
2023-04-02T08:58:02.039Z,82.59
2023-04-02T08:58:48.739Z,82.58
2023-04-02T08:59:33.544Z,82.41
2023-04-02T09:00:30.156Z,82.05
2023-04-02T09:01:06.661Z,81.56
2023-04-02T09:01:48.991Z,82.12
2023-04-02T09:02:28.435Z,82.15
2023-04-02T09:03:16.330Z,82.15
2023-04-02T09:03:54.292Z,81.71
2023-04-02T09:04:28.692Z,81.99
2023-04-02T09:05:06.536Z,81.98
2023-04-02T09:05:43.542Z,81.95
2023-04-02T09:06:20.652Z,82.04
2023-04-02T09:06:56.907Z,81.84
2023-04-02T09:07:33.335Z,81.40
2023-04-02T09:08:18.989Z,81.49
2023-04-02T09:08:54.095Z,81.81
2023-04-02T09:09:28.112Z,82.06